createdAt,value
2023-01-19T00:00:55.007Z,73.16
2023-01-19T00:03:22.016Z,73.29
2023-01-19T00:05:50.398Z,73.29
2023-01-19T00:08:17.769Z,73.36
2023-01-19T00:10:51.724Z,73.38
2023-01-19T00:13:18.881Z,73.45
2023-01-19T00:15:46.033Z,73.67
2023-01-19T00:18:13.092Z,73.75
2023-01-19T00:20:40.777Z,73.75
2023-01-19T00:23:08.474Z,73.78
2023-01-19T00:25:36.281Z,73.84
2023-01-19T00:28:03.339Z,73.89
2023-01-19T00:30:30.576Z,73.82
2023-01-19T00:32:57.820Z,73.87
2023-01-19T00:35:25.436Z,73.83
2023-01-19T00:37:52.468Z,73.83
2023-01-19T00:40:19.704Z,73.71
2023-01-19T00:42:48.697Z,73.71
2023-01-19T00:45:20.768Z,73.77
2023-01-19T00:47:48.704Z,73.78
2023-01-19T00:50:19.533Z,73.86
2023-01-19T00:52:47.038Z,73.75
2023-01-19T00:55:14.944Z,73.80
2023-01-19T00:57:42.095Z,73.60
2023-01-19T01:00:11.976Z,73.50
2023-01-19T01:02:40.181Z,73.69
2023-01-19T01:05:08.255Z,73.72
2023-01-19T01:07:40.787Z,73.99
2023-01-19T01:10:10.057Z,74.14
2023-01-19T01:12:38.098Z,74.35
2023-01-19T01:15:10.373Z,74.51
2023-01-19T01:17:38.448Z,74.71
2023-01-19T01:20:06.216Z,74.82
2023-01-19T01:22:33.822Z,74.73
2023-01-19T01:25:00.864Z,74.85
2023-01-19T01:27:27.955Z,74.81
2023-01-19T01:29:55.004Z,74.94
2023-01-19T01:32:22.061Z,75.09
2023-01-19T01:34:49.104Z,75.17
2023-01-19T01:37:16.155Z,75.12
2023-01-19T01:39:43.303Z,75.08
2023-01-19T01:42:16.238Z,75.01
2023-01-19T01:44:56.357Z,75.04
2023-01-19T01:47:27.086Z,75.05
2023-01-19T01:50:15.843Z,75.01
2023-01-19T01:53:06.819Z,74.99
2023-01-19T01:55:33.087Z,74.87
2023-01-19T01:58:03.311Z,74.89
2023-01-19T02:00:50.399Z,74.77
2023-01-19T02:03:17.633Z,74.60
2023-01-19T02:05:44.751Z,74.45
2023-01-19T02:08:52.132Z,74.39
2023-01-19T02:11:37.817Z,74.50
2023-01-19T02:14:05.536Z,74.53
2023-01-19T02:16:33.838Z,74.59
2023-01-19T02:19:01.525Z,74.64
2023-01-19T02:21:36.809Z,74.60
2023-01-19T02:24:05.004Z,74.59
2023-01-19T02:26:39.164Z,74.72
2023-01-19T02:29:09.081Z,74.72
2023-01-19T02:31:37.563Z,74.63
2023-01-19T02:34:05.084Z,74.61
2023-01-19T02:36:48.149Z,74.65
2023-01-19T02:39:15.708Z,74.60
2023-01-19T02:41:44.823Z,74.51
2023-01-19T02:44:11.814Z,74.57
2023-01-19T02:46:38.917Z,74.60
2023-01-19T02:49:05.981Z,74.72
2023-01-19T02:51:32.907Z,74.71
2023-01-19T02:54:17.696Z,74.40
2023-01-19T02:56:51.795Z,74.25
2023-01-19T02:59:37.897Z,74.18
2023-01-19T03:02:22.249Z,74.30
2023-01-19T03:04:49.393Z,74.36
2023-01-19T03:07:35.291Z,74.28
2023-01-19T03:10:53.231Z,74.21
2023-01-19T03:13:30.312Z,74.03
2023-01-19T03:16:22.826Z,73.94
2023-01-19T03:18:54.043Z,73.87
2023-01-19T03:21:23.937Z,73.89
2023-01-19T03:23:51.049Z,73.66
2023-01-19T03:26:19.871Z,73.53
2023-01-19T03:28:48.929Z,73.46
2023-01-19T03:31:22.981Z,73.40
2023-01-19T03:33:55.326Z,73.46
2023-01-19T03:36:27.829Z,73.51
2023-01-19T03:38:54.988Z,73.44
2023-01-19T03:41:23.059Z,73.15
2023-01-19T03:43:50.843Z,73.21
2023-01-19T03:46:19.062Z,73.31
2023-01-19T03:48:46.509Z,73.32
2023-01-19T03:51:14.654Z,73.19
2023-01-19T03:53:42.023Z,73.25
2023-01-19T03:56:18.185Z,73.25
2023-01-19T03:58:45.921Z,73.26
2023-01-19T04:01:14.192Z,73.28
2023-01-19T04:03:42.112Z,73.17
2023-01-19T04:06:10.058Z,72.92
2023-01-19T04:08:37.211Z,72.91
2023-01-19T04:11:04.326Z,72.89
2023-01-19T04:13:31.836Z,72.95
2023-01-19T04:16:02.594Z,72.87
2023-01-19T04:18:30.228Z,72.85
2023-01-19T04:21:05.402Z,72.79
2023-01-19T04:23:32.705Z,72.73
2023-01-19T04:26:08.874Z,72.58
2023-01-19T04:28:37.320Z,72.61
2023-01-19T04:31:05.608Z,72.55
2023-01-19T04:33:32.683Z,72.77
2023-01-19T04:35:59.729Z,72.92
2023-01-19T04:38:27.201Z,72.91
2023-01-19T04:40:54.446Z,72.79
2023-01-19T04:43:22.115Z,72.73
2023-01-19T04:45:49.405Z,72.66
2023-01-19T04:48:18.820Z,72.64
2023-01-19T04:50:46.247Z,72.61
2023-01-19T04:53:13.931Z,72.64
2023-01-19T04:55:41.248Z,72.61
2023-01-19T04:58:08.437Z,72.52
2023-01-19T05:00:35.759Z,72.49
2023-01-19T05:03:03.198Z,72.50
2023-01-19T05:05:30.580Z,72.40
2023-01-19T05:07:59.376Z,72.47
2023-01-19T05:10:26.926Z,72.57
2023-01-19T05:12:53.978Z,72.51
2023-01-19T05:15:21.029Z,72.55
2023-01-19T05:17:48.191Z,72.61
2023-01-19T05:20:16.486Z,72.42
2023-01-19T05:22:48.874Z,72.38
2023-01-19T05:25:15.947Z,72.50
2023-01-19T05:27:43.295Z,72.65
2023-01-19T05:30:11.624Z,72.67
2023-01-19T05:32:38.668Z,72.72
2023-01-19T05:35:06.615Z,72.69
2023-01-19T05:37:33.690Z,72.84
2023-01-19T05:40:00.846Z,72.75
2023-01-19T05:54:55.502Z,72.46
2023-01-19T05:57:22.942Z,71.37
2023-01-19T05:59:50.066Z,71.59
2023-01-19T06:02:17.212Z,71.85
2023-01-19T06:04:45.072Z,72.14
2023-01-19T06:07:12.047Z,72.31
2023-01-19T06:09:39.046Z,72.36
2023-01-19T06:12:06.570Z,72.41
2023-01-19T06:14:33.539Z,72.53
2023-01-19T06:17:00.946Z,72.57
2023-01-19T06:19:28.039Z,72.61
2023-01-19T06:21:55.047Z,72.78
2023-01-19T06:24:23.356Z,72.73
2023-01-19T06:26:50.428Z,72.64
2023-01-19T06:29:17.619Z,72.74
2023-01-19T06:31:44.763Z,72.75
2023-01-19T06:34:12.165Z,72.78
2023-01-19T06:36:39.106Z,72.56
2023-01-19T06:39:06.384Z,72.77
2023-01-19T06:41:33.957Z,72.69
2023-01-19T06:44:01.194Z,72.57
2023-01-19T06:46:28.245Z,72.74
2023-01-19T06:48:55.412Z,73.12
2023-01-19T06:51:22.630Z,73.54
2023-01-19T06:53:49.701Z,73.97
2023-01-19T06:56:16.870Z,74.29
2023-01-19T06:58:44.195Z,74.54
2023-01-19T07:01:11.347Z,74.76
2023-01-19T07:03:38.932Z,74.88
2023-01-19T07:06:09.333Z,74.98
2023-01-19T07:08:36.992Z,75.14
2023-01-19T07:11:26.759Z,75.32
2023-01-19T07:13:54.751Z,75.57
2023-01-19T07:16:21.907Z,75.65
2023-01-19T07:18:49.038Z,75.84
2023-01-19T07:21:16.154Z,75.89
2023-01-19T07:23:43.711Z,75.96
2023-01-19T07:26:11.693Z,75.96
2023-01-19T07:28:38.882Z,75.99
2023-01-19T07:31:06.202Z,76.07
2023-01-19T07:33:33.368Z,76.08
2023-01-19T07:36:00.347Z,76.13
2023-01-19T07:38:27.862Z,76.07
2023-01-19T07:41:05.533Z,76.06
2023-01-19T07:43:32.872Z,76.11
2023-01-19T07:46:00.705Z,76.05
2023-01-19T07:48:27.893Z,76.08
2023-01-19T07:51:00.048Z,76.15
2023-01-19T07:53:27.084Z,76.21
2023-01-19T07:55:57.401Z,76.20
2023-01-19T07:58:25.153Z,76.35
2023-01-19T08:00:52.280Z,76.39
2023-01-19T08:03:19.274Z,76.44
2023-01-19T08:05:49.742Z,76.46
2023-01-19T08:08:16.715Z,76.56
2023-01-19T08:10:43.674Z,76.54
2023-01-19T08:13:10.665Z,76.61
2023-01-19T08:15:37.741Z,76.76
2023-01-19T08:18:10.056Z,76.74
2023-01-19T08:20:37.096Z,76.79
2023-01-19T08:23:04.983Z,76.82
2023-01-19T08:25:33.620Z,76.87
2023-01-19T08:28:00.702Z,76.93
2023-01-19T08:30:27.765Z,77.06
2023-01-19T08:32:55.141Z,77.14
2023-01-19T08:35:22.815Z,77.28
2023-01-19T08:37:49.907Z,77.34
2023-01-19T08:40:18.562Z,77.29
2023-01-19T08:42:45.957Z,77.37
2023-01-19T08:45:12.992Z,77.36
2023-01-19T08:47:40.066Z,77.41
2023-01-19T08:50:07.576Z,77.42
2023-01-19T08:52:34.497Z,77.45
2023-01-19T08:55:01.969Z,77.61
2023-01-19T08:57:29.238Z,77.54
2023-01-19T08:59:56.254Z,77.57
2023-01-19T09:02:23.326Z,77.60
2023-01-19T09:04:50.376Z,77.56
2023-01-19T09:07:18.625Z,77.65
2023-01-19T09:09:45.563Z,77.67
2023-01-19T09:12:12.607Z,77.81
2023-01-19T09:14:39.698Z,77.87
2023-01-19T09:17:07.182Z,77.84
2023-01-19T09:19:35.179Z,77.73
2023-01-19T09:22:02.229Z,77.85
2023-01-19T09:24:29.339Z,77.71
2023-01-19T09:26:56.344Z,77.87
2023-01-19T09:29:23.314Z,77.87
2023-01-19T09:31:50.378Z,77.72
2023-01-19T09:34:17.528Z,77.68
2023-01-19T09:36:44.543Z,77.45
2023-01-19T09:39:11.700Z,77.50
2023-01-19T09:41:39.263Z,77.42
2023-01-19T09:44:06.204Z,77.29
2023-01-19T09:46:40.242Z,77.27
2023-01-19T09:49:37.214Z,77.26
2023-01-19T09:52:04.196Z,77.10
2023-01-19T09:54:44.624Z,77.15
2023-01-19T09:57:12.275Z,76.98
2023-01-19T09:59:39.374Z,77.13
2023-01-19T10:02:42.069Z,77.07
2023-01-19T10:05:26.035Z,77.29
2023-01-19T10:08:02.588Z,77.07
2023-01-19T10:10:31.556Z,77.08
2023-01-19T10:31:32.936Z,76.57
2023-01-19T10:34:00.155Z,76.73
2023-01-19T10:36:37.239Z,76.72
2023-01-19T10:39:06.084Z,76.63
2023-01-19T10:41:44.499Z,76.62
2023-01-19T10:44:12.211Z,76.76
2023-01-19T10:46:47.011Z,76.68
2023-01-19T10:49:25.919Z,76.26
2023-01-19T10:51:53.055Z,76.02
2023-01-19T10:54:21.111Z,75.84
2023-01-19T10:57:08.445Z,75.80
2023-01-19T10:59:51.291Z,75.79
2023-01-19T11:02:27.863Z,75.68
2023-01-19T11:04:57.060Z,75.56
2023-01-19T11:07:33.739Z,75.53
2023-01-19T11:10:16.063Z,75.38
2023-01-19T11:12:44.706Z,75.14
2023-01-19T11:15:25.957Z,75.12
2023-01-19T11:17:53.751Z,74.88
2023-01-19T11:20:26.182Z,74.78
2023-01-19T11:23:21.848Z,74.78
2023-01-19T11:25:49.972Z,74.76
2023-01-19T11:28:42.977Z,74.78
2023-01-19T11:31:11.296Z,74.62
2023-01-19T11:33:42.163Z,74.67
2023-01-19T11:36:17.669Z,74.60
2023-01-19T11:38:50.764Z,74.58
2023-01-19T11:41:26.826Z,74.67
2023-01-19T11:43:58.368Z,74.57
2023-01-19T11:46:29.614Z,74.35
2023-01-19T11:49:02.292Z,74.28
2023-01-19T11:51:34.885Z,74.26
2023-01-19T11:54:01.840Z,74.27
2023-01-19T11:56:29.215Z,74.42
2023-01-19T11:58:56.303Z,74.35
2023-01-19T12:01:28.245Z,73.98
2023-01-19T12:04:14.389Z,73.64
2023-01-19T12:06:44.667Z,73.67
2023-01-19T12:09:13.149Z,73.65
2023-01-19T12:11:45.421Z,73.65
2023-01-19T12:14:28.805Z,73.42
2023-01-19T12:16:58.034Z,73.16
2023-01-19T12:19:27.867Z,73.09
2023-01-19T12:21:54.831Z,72.98
2023-01-19T12:24:37.710Z,73.00
2023-01-19T12:27:18.010Z,72.83
2023-01-19T12:29:45.718Z,72.92
2023-01-19T12:32:18.610Z,72.79
2023-01-19T12:34:49.257Z,72.87
2023-01-19T12:37:31.587Z,72.85
2023-01-19T12:40:22.340Z,72.94
2023-01-19T12:43:08.813Z,72.88
2023-01-19T12:45:36.707Z,72.95
2023-01-19T12:48:04.239Z,72.87
2023-01-19T12:50:38.129Z,72.90
2023-01-19T12:53:08.596Z,72.82
2023-01-19T12:55:37.153Z,72.77
2023-01-19T12:58:18.138Z,72.79
2023-01-19T13:00:46.081Z,72.75
2023-01-19T13:03:19.215Z,72.64
2023-01-19T13:05:52.722Z,72.52
2023-01-19T13:08:24.659Z,72.64
2023-01-19T13:11:03.598Z,72.65
2023-01-19T13:13:31.202Z,72.64
2023-01-19T13:16:30.306Z,72.66
2023-01-19T13:19:01.534Z,72.63
2023-01-19T13:21:44.724Z,72.56
2023-01-19T13:24:16.754Z,72.53
2023-01-19T13:26:49.880Z,72.42
2023-01-19T13:29:38.258Z,72.30
2023-01-19T13:32:16.250Z,72.42
2023-01-19T13:34:48.214Z,72.32
2023-01-19T13:37:15.890Z,72.27
2023-01-19T13:39:44.584Z,72.29
2023-01-19T13:55:13.069Z,72.07
2023-01-19T13:57:41.343Z,71.40
2023-01-19T14:00:21.073Z,71.39
2023-01-19T14:03:13.032Z,71.48
2023-01-19T14:05:41.231Z,71.38
2023-01-19T14:08:08.487Z,71.43
2023-01-19T14:10:40.527Z,71.40
2023-01-19T14:13:18.679Z,71.40
2023-01-19T14:15:46.781Z,71.27
2023-01-19T14:18:16.717Z,71.17
2023-01-19T14:21:00.858Z,71.06
2023-01-19T14:24:07.299Z,70.91
2023-01-19T14:26:36.809Z,70.91
2023-01-19T14:29:29.205Z,70.80
2023-01-19T14:32:16.421Z,70.78
2023-01-19T14:35:05.195Z,70.70
2023-01-19T14:37:46.763Z,70.64
2023-01-19T14:40:21.034Z,70.63
2023-01-19T14:42:59.617Z,70.56
2023-01-19T14:45:40.874Z,70.42
2023-01-19T14:48:18.403Z,70.43
2023-01-19T14:50:57.658Z,70.35
2023-01-19T14:53:37.913Z,70.37
2023-01-19T14:56:05.409Z,70.35
2023-01-19T14:58:34.649Z,70.31
2023-01-19T15:01:01.505Z,70.27
2023-01-19T15:03:44.750Z,70.31
2023-01-19T15:06:17.129Z,70.28
2023-01-19T15:08:43.977Z,70.37
2023-01-19T15:11:32.038Z,70.33
2023-01-19T15:13:59.202Z,70.43
2023-01-19T15:16:26.749Z,70.50
2023-01-19T15:18:53.656Z,70.69
2023-01-19T15:21:23.164Z,70.81
2023-01-19T15:23:50.037Z,70.98
2023-01-19T15:26:21.242Z,71.14
2023-01-19T15:28:48.754Z,71.26
2023-01-19T15:31:19.748Z,71.39
2023-01-19T15:33:46.647Z,71.44
2023-01-19T15:36:17.017Z,71.50
2023-01-19T15:38:45.312Z,71.52
2023-01-19T15:41:23.020Z,71.68
2023-01-19T15:43:50.221Z,71.86
2023-01-19T15:46:18.584Z,72.02
2023-01-19T15:48:45.403Z,72.22
2023-01-19T15:51:16.754Z,72.28
2023-01-19T15:53:43.731Z,72.28
2023-01-19T15:56:15.108Z,72.28
2023-01-19T15:58:42.535Z,72.43
2023-01-19T16:01:21.150Z,72.48
2023-01-19T16:03:48.144Z,72.51
2023-01-19T16:06:15.813Z,72.44
2023-01-19T16:08:42.687Z,72.31
2023-01-19T16:11:13.560Z,72.37
2023-01-19T16:13:40.378Z,72.42
2023-01-19T16:16:09.666Z,72.28
2023-01-19T16:18:36.513Z,72.17
2023-01-19T16:21:03.336Z,72.14
2023-01-19T16:23:30.185Z,71.97
2023-01-19T16:26:04.411Z,71.97
2023-01-19T16:28:31.225Z,71.97
2023-01-19T16:30:58.034Z,71.74
2023-01-19T16:33:24.774Z,71.59
2023-01-19T16:35:51.661Z,71.58
2023-01-19T16:38:18.501Z,71.64
2023-01-19T16:40:45.465Z,71.63
2023-01-19T16:43:12.809Z,71.70
2023-01-19T16:45:57.594Z,71.62
2023-01-19T16:48:25.099Z,71.47
2023-01-19T16:51:04.734Z,71.43
2023-01-19T16:53:32.394Z,71.30
2023-01-19T16:55:59.252Z,71.35
2023-01-19T16:58:26.079Z,71.21
2023-01-19T17:00:52.914Z,71.12
2023-01-19T17:03:20.243Z,71.13
2023-01-19T17:05:50.513Z,71.09
2023-01-19T17:08:19.157Z,71.04
2023-01-19T17:10:46.923Z,70.93
2023-01-19T17:13:13.719Z,70.86
2023-01-19T17:15:40.535Z,70.80
2023-01-19T17:18:07.561Z,70.63
2023-01-19T17:20:34.432Z,70.48
2023-01-19T17:23:01.212Z,70.41
2023-01-19T17:25:28.107Z,70.29
2023-01-19T17:27:55.024Z,70.15
2023-01-19T17:30:21.841Z,70.07
2023-01-19T17:32:48.653Z,70.05
2023-01-19T17:35:15.469Z,69.95
2023-01-19T17:37:42.290Z,69.94
2023-01-19T17:40:09.788Z,70.13
2023-01-19T17:42:41.393Z,71.37
2023-01-19T17:45:10.393Z,72.60
2023-01-19T17:47:38.027Z,73.21
2023-01-19T17:50:05.186Z,73.49
2023-01-19T17:52:32.248Z,73.79
2023-01-19T17:54:59.239Z,74.03
2023-01-19T17:57:26.439Z,74.38
2023-01-19T17:59:53.365Z,74.52
2023-01-19T18:02:23.809Z,74.80
2023-01-19T18:04:52.061Z,75.08
2023-01-19T18:07:19.230Z,75.27
2023-01-19T18:09:46.198Z,75.54
2023-01-19T18:12:13.023Z,75.71
2023-01-19T18:14:40.620Z,75.88
2023-01-19T18:17:07.863Z,76.16
2023-01-19T18:19:34.893Z,76.38
2023-01-19T18:22:02.465Z,76.59
2023-01-19T18:24:29.566Z,76.83
2023-01-19T18:26:56.467Z,76.99
2023-01-19T18:29:23.405Z,77.17
2023-01-19T18:31:51.082Z,77.35
2023-01-19T18:34:18.307Z,77.46
2023-01-19T18:36:45.170Z,77.64
2023-01-19T18:39:12.658Z,77.70
2023-01-19T18:41:42.372Z,77.91
2023-01-19T18:44:09.621Z,77.94
2023-01-19T18:46:37.599Z,78.13
2023-01-19T18:49:04.769Z,78.09
2023-01-19T18:51:31.591Z,78.21
2023-01-19T18:53:58.750Z,78.29
2023-01-19T18:56:25.656Z,78.26
2023-01-19T18:58:52.893Z,78.34
2023-01-19T19:01:22.828Z,78.27
2023-01-19T19:03:50.181Z,78.38
2023-01-19T19:06:20.170Z,78.30
2023-01-19T19:08:48.889Z,78.27
2023-01-19T19:11:15.855Z,78.34
2023-01-19T19:13:42.861Z,78.34
2023-01-19T19:16:10.536Z,78.35
2023-01-19T19:18:37.699Z,78.33
2023-01-19T19:21:09.079Z,78.32
2023-01-19T19:23:36.791Z,78.35
2023-01-19T19:26:05.111Z,78.46
2023-01-19T19:28:32.877Z,78.51
2023-01-19T19:31:11.015Z,78.50
2023-01-19T19:33:38.427Z,78.49
2023-01-19T19:36:05.555Z,78.54
2023-01-19T19:38:32.772Z,78.49
2023-01-19T19:41:04.296Z,78.67
2023-01-19T19:43:32.371Z,78.59
2023-01-19T19:46:00.314Z,78.63
2023-01-19T19:48:27.608Z,78.60
2023-01-19T19:50:54.826Z,78.65
2023-01-19T19:53:22.350Z,78.69
2023-01-19T19:55:57.505Z,78.63
2023-01-19T19:58:25.075Z,78.61
2023-01-19T20:00:52.017Z,78.73
2023-01-19T20:03:19.393Z,78.65
2023-01-19T20:05:46.625Z,78.57
2023-01-19T20:08:13.432Z,78.55
2023-01-19T20:10:40.209Z,78.60
2023-01-19T20:13:10.097Z,78.64
2023-01-19T20:15:37.935Z,78.56
2023-01-19T20:18:05.720Z,78.59
2023-01-19T20:20:33.561Z,78.42
2023-01-19T20:23:00.966Z,78.48
2023-01-19T20:25:27.970Z,78.41
2023-01-19T20:27:55.245Z,78.40
2023-01-19T20:30:22.184Z,78.45
2023-01-19T20:32:51.160Z,78.39
2023-01-19T20:35:18.364Z,78.41
2023-01-19T20:37:45.276Z,78.36
2023-01-19T20:40:12.255Z,78.40
2023-01-19T20:42:41.064Z,78.37
2023-01-19T20:45:08.140Z,78.30
2023-01-19T20:47:34.994Z,78.25
2023-01-19T20:50:02.258Z,78.33
2023-01-19T20:52:29.361Z,78.43
2023-01-19T20:54:56.353Z,78.38
2023-01-19T20:57:23.424Z,78.41
2023-01-19T20:59:50.420Z,78.48
2023-01-19T21:02:17.336Z,78.46
2023-01-19T21:04:44.483Z,78.65
2023-01-19T21:07:11.585Z,78.66
2023-01-19T21:09:39.593Z,78.75
2023-01-19T21:12:09.285Z,78.84
2023-01-19T21:14:36.202Z,78.92
2023-01-19T21:17:03.208Z,79.03
2023-01-19T21:19:30.157Z,79.18
2023-01-19T21:21:57.060Z,79.24
2023-01-19T21:24:24.074Z,79.50
2023-01-19T21:26:50.951Z,79.56
2023-01-19T21:29:18.222Z,79.83
2023-01-19T21:31:45.394Z,79.88
2023-01-19T21:34:13.772Z,79.87
2023-01-19T21:36:40.628Z,79.98
2023-01-19T21:39:08.587Z,79.97
2023-01-19T21:41:35.488Z,79.98
2023-01-19T21:44:02.317Z,79.91
2023-01-19T21:46:30.097Z,79.82
2023-01-19T21:48:57.688Z,79.82
2023-01-19T21:51:24.710Z,79.77
2023-01-19T22:04:44.031Z,79.23
2023-01-19T22:07:11.198Z,78.57
2023-01-19T22:09:39.210Z,78.55
2023-01-19T22:12:06.516Z,78.47
2023-01-19T22:14:33.436Z,78.42
2023-01-19T22:17:00.464Z,78.42
2023-01-19T22:19:28.121Z,78.27
2023-01-19T22:21:55.057Z,78.23
2023-01-19T22:24:24.070Z,77.90
2023-01-19T22:26:51.100Z,76.07
2023-01-19T22:29:18.035Z,75.23
2023-01-19T22:31:46.359Z,74.44
2023-01-19T22:34:13.853Z,74.06
2023-01-19T22:36:40.912Z,73.87
2023-01-19T22:39:09.695Z,73.74
2023-01-19T22:41:44.521Z,73.80
2023-01-19T22:44:17.535Z,73.96
2023-01-19T22:46:44.573Z,74.03
2023-01-19T22:49:14.206Z,73.87
2023-01-19T22:51:41.342Z,73.78
2023-01-19T22:54:08.442Z,73.65
2023-01-19T22:56:36.593Z,73.27
2023-01-19T22:59:04.022Z,73.26
2023-01-19T23:01:37.128Z,73.22
2023-01-19T23:04:04.735Z,73.25
2023-01-19T23:06:33.760Z,73.16
2023-01-19T23:09:02.106Z,73.02
2023-01-19T23:11:37.163Z,72.90
2023-01-19T23:14:05.208Z,72.73
2023-01-19T23:16:32.185Z,72.64
2023-01-19T23:18:59.215Z,72.52
2023-01-19T23:21:28.595Z,72.31
2023-01-19T23:23:56.944Z,72.27
2023-01-19T23:26:24.410Z,72.06
2023-01-19T23:28:59.342Z,71.98
2023-01-19T23:31:27.235Z,71.88
2023-01-19T23:33:55.919Z,71.69
2023-01-19T23:36:23.958Z,71.57
2023-01-19T23:38:56.066Z,71.56
2023-01-19T23:41:23.019Z,71.40
2023-01-19T23:43:52.745Z,71.18
2023-01-19T23:46:19.996Z,71.07
2023-01-19T23:48:47.370Z,70.94
2023-01-19T23:51:16.753Z,70.78
2023-01-19T23:53:43.820Z,70.72
2023-01-19T23:56:14.823Z,70.58
2023-01-19T23:58:42.038Z,70.45
